Time;durP1;ratioP1;P1;durP2;ratioP2;P2;SDS_P1;SDS_P2;PMS_P1;PMS_P2;Temp;Humidity;BMP_temperature;BMP_pressure;BME280_temperature;BME280_humidity;BME280_pressure;Samples;Min_cycle;Max_cycle;Signal;HPM_P1;HPM_P2
2022/03/20 00:00:32;;;;;;;21.40;14.70;;;;;;;;;;4919443;29;20181;-77
2022/03/20 00:02:58;;;;;;;25.23;13.85;;;;;;;;;;4919574;29;20189;-78
2022/03/20 00:05:24;;;;;;;22.15;14.35;;;;;;;;;;4919703;29;20184;-75
2022/03/20 00:07:51;;;;;;;24.60;14.63;;;;;;;;;;4919436;29;20293;-79
2022/03/20 00:10:17;;;;;;;20.90;15.07;;;;;;;;;;4919047;29;20228;-79
2022/03/20 00:12:43;;;;;;;24.10;14.27;;;;;;;;;;4919251;29;20222;-78
2022/03/20 00:15:09;;;;;;;19.52;14.10;;;;;;;;;;4919088;29;20236;-77
2022/03/20 00:17:35;;;;;;;22.48;14.73;;;;;;;;;;4919168;29;20265;-76
2022/03/20 00:20:02;;;;;;;17.52;12.80;;;;;;;;;;4919075;29;20666;-78
2022/03/20 00:22:29;;;;;;;23.08;14.27;;;;;;;;;;4918922;29;20288;-77
2022/03/20 00:24:55;;;;;;;18.17;14.07;;;;;;;;;;4919209;29;20193;-76
2022/03/20 00:27:21;;;;;;;18.92;13.63;;;;;;;;;;4919177;29;20203;-76
2022/03/20 00:29:47;;;;;;;23.47;15.10;;;;;;;;;;4917937;29;20193;-78
2022/03/20 00:32:14;;;;;;;17.87;13.43;;;;;;;;;;4918650;29;20473;-78
2022/03/20 00:34:40;;;;;;;21.15;15.13;;;;;;;;;;4919026;29;20418;-76
2022/03/20 00:37:07;;;;;;;20.83;14.18;;;;;;;;;;4918844;29;20189;-77
2022/03/20 00:39:33;;;;;;;20.73;14.90;;;;;;;;;;4918857;29;20177;-77
2022/03/20 00:41:59;;;;;;;19.48;14.32;;;;;;;;;;4918377;29;20239;-77
2022/03/20 00:44:25;;;;;;;18.63;14.23;;;;;;;;;;4918757;29;20226;-77
2022/03/20 00:46:51;;;;;;;20.85;14.45;;;;;;;;;;4918584;29;20189;-77
2022/03/20 00:49:17;;;;;;;22.15;15.40;;;;;;;;;;4918462;29;20556;-75
2022/03/20 00:51:43;;;;;;;22.02;13.90;;;;;;;;;;4918088;29;20217;-76
2022/03/20 00:54:10;;;;;;;22.88;13.30;;;;;;;;;;4917502;29;20188;-76
2022/03/20 00:56:36;;;;;;;23.25;13.77;;;;;;;;;;4918718;29;20205;-78
2022/03/20 00:59:03;;;;;;;16.48;14.65;;;;;;;;;;4918581;29;20582;-79
2022/03/20 01:01:29;;;;;;;21.27;14.50;;;;;;;;;;4917992;29;20264;-78
2022/03/20 01:03:55;;;;;;;19.10;14.07;;;;;;;;;;4917046;29;20205;-78
2022/03/20 01:06:22;;;;;;;21.20;13.88;;;;;;;;;;4918310;29;20196;-76
2022/03/20 01:08:49;;;;;;;20.17;13.52;;;;;;;;;;4918625;29;20496;-76
2022/03/20 01:11:15;;;;;;;23.40;15.05;;;;;;;;;;4916596;29;20202;-78
2022/03/20 01:13:41;;;;;;;19.92;14.60;;;;;;;;;;4918364;29;20185;-77
2022/03/20 01:16:07;;;;;;;21.60;13.75;;;;;;;;;;4918336;29;20180;-76
2022/03/20 01:18:34;;;;;;;20.58;13.75;;;;;;;;;;4918194;29;20183;-76
2022/03/20 01:21:00;;;;;;;20.73;14.65;;;;;;;;;;4917801;29;20228;-76
2022/03/20 01:23:26;;;;;;;21.92;13.07;;;;;;;;;;4917858;29;20248;-76
2022/03/20 01:25:52;;;;;;;20.87;14.40;;;;;;;;;;4917964;29;20196;-76
2022/03/20 01:28:18;;;;;;;21.40;14.88;;;;;;;;;;4917951;29;20458;-77
2022/03/20 01:30:45;;;;;;;21.58;15.35;;;;;;;;;;4916222;29;20216;-75
2022/03/20 01:33:11;;;;;;;25.00;14.80;;;;;;;;;;4917750;29;20292;-75
2022/03/20 01:35:37;;;;;;;28.40;14.85;;;;;;;;;;4916540;29;20271;-78
2022/03/20 01:38:07;;;;;;;20.98;14.05;;;;;;;;;;4917815;29;20173;-79
2022/03/20 01:40:33;;;;;;;19.02;13.52;;;;;;;;;;4917355;29;20181;-79
2022/03/20 01:42:59;;;;;;;21.58;14.15;;;;;;;;;;4916550;29;20647;-75
2022/03/20 01:45:25;;;;;;;21.67;14.20;;;;;;;;;;4917585;29;20569;-78
2022/03/20 01:47:51;;;;;;;17.83;13.05;;;;;;;;;;4917488;29;20563;-77
2022/03/20 01:50:18;;;;;;;22.70;14.40;;;;;;;;;;4917359;29;20579;-75
2022/03/20 01:52:45;;;;;;;17.23;13.27;;;;;;;;;;4917466;29;20215;-77
2022/03/20 01:55:12;;;;;;;25.77;14.13;;;;;;;;;;4917496;29;20261;-76
2022/03/20 01:57:41;;;;;;;18.50;14.05;;;;;;;;;;4917471;29;20312;-75
2022/03/20 02:00:09;;;;;;;16.58;13.00;;;;;;;;;;4917403;29;20235;-79
2022/03/20 02:02:35;;;;;;;20.75;13.65;;;;;;;;;;4917495;29;20256;-76
2022/03/20 02:05:01;;;;;;;17.23;13.90;;;;;;;;;;4917529;29;20280;-75
2022/03/20 02:07:27;;;;;;;19.92;14.65;;;;;;;;;;4917359;29;20760;-77
2022/03/20 02:09:53;;;;;;;25.75;13.13;;;;;;;;;;4917068;29;20201;-77
2022/03/20 02:12:20;;;;;;;20.20;13.13;;;;;;;;;;4916934;29;20213;-76
2022/03/20 02:14:46;;;;;;;21.52;13.32;;;;;;;;;;4916681;29;20265;-78
2022/03/20 02:17:12;;;;;;;19.48;14.20;;;;;;;;;;4917264;29;20179;-76
2022/03/20 02:19:39;;;;;;;17.17;14.18;;;;;;;;;;4917468;29;20177;-76
2022/03/20 02:22:05;;;;;;;19.02;13.02;;;;;;;;;;4916687;29;20206;-77
2022/03/20 02:24:41;;;;;;;22.27;13.35;;;;;;;;;;4916066;29;20583;-79
2022/03/20 02:27:17;;;;;;;20.65;12.38;;;;;;;;;;4917297;29;20181;-78
2022/03/20 02:29:48;;;;;;;20.27;13.30;;;;;;;;;;4915921;29;20504;-80
2022/03/20 02:32:16;;;;;;;18.23;13.90;;;;;;;;;;4916695;29;20223;-77
2022/03/20 02:34:45;;;;;;;18.00;13.63;;;;;;;;;;4917008;29;20240;-77
2022/03/20 02:37:11;;;;;;;21.45;14.63;;;;;;;;;;4915829;29;20595;-78
2022/03/20 02:39:37;;;;;;;20.27;14.10;;;;;;;;;;4917016;29;20268;-77
2022/03/20 02:42:04;;;;;;;17.98;12.90;;;;;;;;;;4916322;29;20211;-74
2022/03/20 02:44:49;;;;;;;16.60;12.55;;;;;;;;;;4916989;29;20189;-77
2022/03/20 02:47:20;;;;;;;22.35;13.65;;;;;;;;;;4917034;29;20191;-78
2022/03/20 02:49:47;;;;;;;21.00;14.90;;;;;;;;;;4917004;29;20545;-76
2022/03/20 02:52:13;;;;;;;22.05;13.98;;;;;;;;;;4916295;29;20224;-76
2022/03/20 02:54:39;;;;;;;23.00;13.53;;;;;;;;;;4916795;29;20177;-78
2022/03/20 02:57:08;;;;;;;18.45;13.35;;;;;;;;;;4916843;29;20925;-77
2022/03/20 02:59:34;;;;;;;19.92;13.10;;;;;;;;;;4916868;29;20273;-75
2022/03/20 03:02:00;;;;;;;19.55;14.02;;;;;;;;;;4916475;29;20208;-78
2022/03/20 03:04:26;;;;;;;21.02;14.27;;;;;;;;;;4916654;29;20207;-78
2022/03/20 03:06:52;;;;;;;22.90;14.17;;;;;;;;;;4916760;29;20194;-76
2022/03/20 03:12:04;;;;;;;21.17;13.73;;;;;;;;;;4915508;29;20612;-78
2022/03/20 03:17:27;;;;;;;22.63;13.75;;;;;;;;;;4917262;29;20189;-75
2022/03/20 03:19:54;;;;;;;19.30;12.88;;;;;;;;;;4916891;29;20173;-77
2022/03/20 03:22:20;;;;;;;18.17;13.15;;;;;;;;;;4915028;29;20209;-75
2022/03/20 03:24:46;;;;;;;21.87;14.77;;;;;;;;;;4916617;29;20208;-78
2022/03/20 03:27:12;;;;;;;20.00;13.10;;;;;;;;;;4920276;29;20458;-77
2022/03/20 03:29:38;;;;;;;18.17;13.60;;;;;;;;;;4920054;29;20428;-78
2022/03/20 03:32:05;;;;;;;20.50;12.97;;;;;;;;;;4919743;29;20216;-77
2022/03/20 03:37:18;;;;;;;16.13;11.70;;;;;;;;;;4919910;29;20223;-80
2022/03/20 03:39:45;;;;;;;20.23;13.75;;;;;;;;;;4918700;29;20220;-75
2022/03/20 03:42:11;;;;;;;20.42;12.77;;;;;;;;;;4919410;29;20287;-75
2022/03/20 03:44:37;;;;;;;18.23;12.20;;;;;;;;;;4919721;29;20180;-77
2022/03/20 03:47:03;;;;;;;22.83;12.50;;;;;;;;;;4919752;29;20189;-76
2022/03/20 03:49:29;;;;;;;20.70;14.32;;;;;;;;;;4902922;29;20462;-77
2022/03/20 03:51:55;;;;;;;21.60;14.48;;;;;;;;;;4919240;29;20252;-75
2022/03/20 03:54:21;;;;;;;18.55;14.30;;;;;;;;;;4919548;29;20183;-79
2022/03/20 03:56:47;;;;;;;20.90;14.00;;;;;;;;;;4919328;29;20185;-76
2022/03/20 03:59:13;;;;;;;20.93;13.43;;;;;;;;;;4919474;29;20176;-78
2022/03/20 04:01:40;;;;;;;18.60;13.27;;;;;;;;;;4919135;29;20487;-78
2022/03/20 04:04:06;;;;;;;19.27;14.10;;;;;;;;;;4902806;29;20508;-77
2022/03/20 04:06:34;;;;;;;19.48;13.63;;;;;;;;;;4918479;29;20293;-79
2022/03/20 04:09:00;;;;;;;19.55;14.55;;;;;;;;;;4919540;29;20184;-74
2022/03/20 04:11:26;;;;;;;18.63;12.63;;;;;;;;;;4919096;29;20217;-76
2022/03/20 04:13:52;;;;;;;19.60;13.10;;;;;;;;;;4919312;29;20184;-76
2022/03/20 04:16:18;;;;;;;22.33;13.95;;;;;;;;;;4919452;29;20416;-76
2022/03/20 04:18:44;;;;;;;17.48;13.55;;;;;;;;;;4919039;29;20181;-75
2022/03/20 04:21:10;;;;;;;20.98;13.32;;;;;;;;;;4918788;29;20200;-75
2022/03/20 04:23:45;;;;;;;20.42;13.85;;;;;;;;;;4919138;29;20279;-77
2022/03/20 04:26:15;;;;;;;20.73;13.50;;;;;;;;;;4919151;29;20612;-78
2022/03/20 04:28:44;;;;;;;17.58;12.35;;;;;;;;;;4919019;29;20182;-76
2022/03/20 04:31:09;;;;;;;22.67;14.55;;;;;;;;;;4918401;29;20280;-75
2022/03/20 04:33:36;;;;;;;19.27;12.80;;;;;;;;;;4919049;29;20208;-77
2022/03/20 04:36:03;;;;;;;19.13;13.60;;;;;;;;;;4918904;29;20416;-77
2022/03/20 04:38:29;;;;;;;20.23;13.32;;;;;;;;;;4918352;29;20179;-74
2022/03/20 04:40:55;;;;;;;17.10;14.27;;;;;;;;;;4918429;29;20219;-77
2022/03/20 04:43:22;;;;;;;21.42;13.55;;;;;;;;;;4918656;29;20438;-77
2022/03/20 04:45:48;;;;;;;22.77;15.40;;;;;;;;;;4918653;29;20179;-78
2022/03/20 04:59:12;;;;;;;22.77;13.85;;;;;;;;;;4918008;29;20251;-79
2022/03/20 05:01:39;;;;;;;17.85;14.07;;;;;;;;;;4918498;29;20238;-79
2022/03/20 05:04:05;;;;;;;20.80;14.73;;;;;;;;;;4918709;29;20184;-77
2022/03/20 05:06:31;;;;;;;18.42;14.02;;;;;;;;;;4918475;29;20599;-76
2022/03/20 05:13:19;;;;;;;22.48;15.02;;;;;;;;;;4918254;29;20198;-77
2022/03/20 05:14:28;;;;;;;25.52;14.45;;;;;;;;;;4918499;29;20189;-78
2022/03/20 05:16:54;;;;;;;22.67;14.75;;;;;;;;;;4917034;29;20184;-79
2022/03/20 05:19:20;;;;;;;18.23;13.63;;;;;;;;;;4918234;29;20591;-76
2022/03/20 05:21:49;;;;;;;25.38;15.32;;;;;;;;;;4917776;29;20436;-80
2022/03/20 05:24:16;;;;;;;21.55;14.18;;;;;;;;;;4918047;29;20214;-76
2022/03/20 05:26:42;;;;;;;25.15;14.45;;;;;;;;;;4918147;29;20180;-77
2022/03/20 05:29:08;;;;;;;24.27;16.10;;;;;;;;;;4918023;29;20203;-79
2022/03/20 05:31:35;;;;;;;20.33;13.87;;;;;;;;;;4916222;29;20667;-75
2022/03/20 05:34:01;;;;;;;24.35;16.05;;;;;;;;;;4917479;29;20492;-77
2022/03/20 05:36:29;;;;;;;29.80;16.77;;;;;;;;;;4917883;29;20281;-77
2022/03/20 05:38:57;;;;;;;21.77;15.00;;;;;;;;;;4917767;29;20184;-78
2022/03/20 05:44:11;;;;;;;19.92;14.90;;;;;;;;;;4918041;29;20200;-78
2022/03/20 05:46:37;;;;;;;24.83;15.63;;;;;;;;;;4916646;29;20207;-77
2022/03/20 05:49:03;;;;;;;24.57;15.10;;;;;;;;;;4916802;29;20177;-75
2022/03/20 05:51:30;;;;;;;27.63;14.57;;;;;;;;;;4900075;29;20488;-76
2022/03/20 05:53:57;;;;;;;20.38;14.48;;;;;;;;;;4916312;29;20437;-78
2022/03/20 05:59:07;;;;;;;23.80;15.63;;;;;;;;;;4917716;29;20257;-77
2022/03/20 06:01:33;;;;;;;20.23;14.40;;;;;;;;;;4916957;29;20609;-77
2022/03/20 06:04:00;;;;;;;21.23;15.40;;;;;;;;;;4916125;29;20513;-78
2022/03/20 06:06:26;;;;;;;27.55;15.40;;;;;;;;;;4917338;29;20413;-77
2022/03/20 06:08:53;;;;;;;29.85;16.33;;;;;;;;;;4917615;29;20196;-76
2022/03/20 06:11:19;;;;;;;21.88;15.38;;;;;;;;;;4915565;29;20211;-76
2022/03/20 06:13:48;;;;;;;24.07;15.30;;;;;;;;;;4917357;29;20175;-76
2022/03/20 06:16:18;;;;;;;22.75;15.52;;;;;;;;;;4915959;29;20454;-77
2022/03/20 06:18:44;;;;;;;25.90;16.10;;;;;;;;;;4917297;29;20177;-79
2022/03/20 06:21:13;;;;;;;25.55;16.23;;;;;;;;;;4916807;29;20209;-78
2022/03/20 06:23:39;;;;;;;25.58;15.90;;;;;;;;;;4916923;29;20202;-78
2022/03/20 06:26:06;;;;;;;22.20;15.60;;;;;;;;;;4917106;29;20561;-76
2022/03/20 06:28:33;;;;;;;23.20;15.95;;;;;;;;;;4917127;29;20177;-78
2022/03/20 06:30:59;;;;;;;21.60;15.30;;;;;;;;;;4916626;29;20238;-78
2022/03/20 06:33:25;;;;;;;25.05;14.75;;;;;;;;;;4917180;29;20596;-78
2022/03/20 06:35:52;;;;;;;23.05;16.10;;;;;;;;;;4917057;29;20582;-79
2022/03/20 06:38:18;;;;;;;24.45;15.25;;;;;;;;;;4917095;29;20661;-76
2022/03/20 06:40:44;;;;;;;23.38;16.27;;;;;;;;;;4915351;29;20216;-76
2022/03/20 06:43:10;;;;;;;22.38;15.63;;;;;;;;;;4916757;29;20192;-76
2022/03/20 06:45:36;;;;;;;21.40;15.82;;;;;;;;;;4916830;29;20189;-79
2022/03/20 06:48:03;;;;;;;25.10;16.30;;;;;;;;;;4916732;29;20583;-79
2022/03/20 06:50:29;;;;;;;27.02;16.10;;;;;;;;;;4916421;29;20425;-76
2022/03/20 06:53:01;;;;;;;27.67;16.27;;;;;;;;;;4916807;29;20217;-77
2022/03/20 06:55:27;;;;;;;25.75;17.25;;;;;;;;;;4916878;29;20181;-74
2022/03/20 06:57:53;;;;;;;20.95;16.23;;;;;;;;;;4916754;29;20174;-76
2022/03/20 07:00:19;;;;;;;24.83;15.70;;;;;;;;;;4915972;29;20553;-77
2022/03/20 07:02:45;;;;;;;20.50;14.52;;;;;;;;;;4920755;29;20591;-77
2022/03/20 07:05:11;;;;;;;23.90;16.33;;;;;;;;;;4919475;29;20223;-77
2022/03/20 07:07:37;;;;;;;25.05;15.75;;;;;;;;;;4920549;29;20212;-76
2022/03/20 07:10:04;;;;;;;21.63;15.33;;;;;;;;;;4920351;29;20667;-79
2022/03/20 07:12:30;;;;;;;25.70;17.13;;;;;;;;;;4919988;29;20465;-76
2022/03/20 07:14:57;;;;;;;25.08;17.25;;;;;;;;;;4920430;29;20230;-77
2022/03/20 07:17:24;;;;;;;27.13;16.25;;;;;;;;;;4920371;29;20549;-76
2022/03/20 07:19:50;;;;;;;28.27;18.80;;;;;;;;;;4920546;29;20610;-77
2022/03/20 07:22:18;;;;;;;23.17;16.67;;;;;;;;;;4918539;29;20266;-79
2022/03/20 07:24:44;;;;;;;26.98;17.23;;;;;;;;;;4920027;29;20261;-77
2022/03/20 07:29:55;;;;;;;24.73;17.20;;;;;;;;;;4920485;29;20201;-78
2022/03/20 07:32:21;;;;;;;26.52;16.25;;;;;;;;;;4919532;29;20585;-78
2022/03/20 07:34:48;;;;;;;28.55;17.98;;;;;;;;;;4920075;29;20182;-76
2022/03/20 07:37:16;;;;;;;30.95;18.63;;;;;;;;;;4920033;29;20177;-78
2022/03/20 07:39:42;;;;;;;27.77;17.38;;;;;;;;;;4919961;29;20321;-77
2022/03/20 07:42:08;;;;;;;26.58;18.77;;;;;;;;;;4919358;29;20711;-77
2022/03/20 07:44:36;;;;;;;22.27;17.05;;;;;;;;;;4918534;29;20182;-79
2022/03/20 07:47:03;;;;;;;25.73;18.23;;;;;;;;;;4919707;29;20265;-77
2022/03/20 07:49:30;;;;;;;25.15;17.05;;;;;;;;;;4919747;29;20202;-77
2022/03/20 07:51:57;;;;;;;25.33;17.13;;;;;;;;;;4919240;29;20209;-76
2022/03/20 07:54:24;;;;;;;28.90;18.55;;;;;;;;;;4918147;29;20257;-76
2022/03/20 07:56:50;;;;;;;26.25;18.80;;;;;;;;;;4918362;29;20673;-79
2022/03/20 07:59:16;;;;;;;27.60;18.58;;;;;;;;;;4919554;29;20178;-75
2022/03/20 08:01:43;;;;;;;27.95;18.70;;;;;;;;;;4918011;29;20202;-75
2022/03/20 08:04:09;;;;;;;24.17;18.30;;;;;;;;;;4919484;29;20190;-79
2022/03/20 08:06:35;;;;;;;26.27;19.75;;;;;;;;;;4918065;29;20187;-77
2022/03/20 08:09:01;;;;;;;26.80;19.53;;;;;;;;;;4918306;29;20555;-78
2022/03/20 08:11:27;;;;;;;28.40;18.25;;;;;;;;;;4918491;29;20543;-75
2022/03/20 08:13:54;;;;;;;29.48;18.42;;;;;;;;;;4919228;29;20705;-79
2022/03/20 08:16:22;;;;;;;27.88;20.27;;;;;;;;;;4919537;29;20643;-77
2022/03/20 08:18:48;;;;;;;28.88;18.40;;;;;;;;;;4919388;29;20175;-78
2022/03/20 08:21:14;;;;;;;28.95;18.35;;;;;;;;;;4917546;29;20695;-76
2022/03/20 08:23:40;;;;;;;27.23;18.73;;;;;;;;;;4919084;29;20210;-78
2022/03/20 08:26:08;;;;;;;28.48;19.00;;;;;;;;;;4919202;29;20191;-77
2022/03/20 08:28:38;;;;;;;27.95;19.95;;;;;;;;;;4917635;29;20182;-78
2022/03/20 08:31:07;;;;;;;28.63;19.85;;;;;;;;;;4913570;29;20274;-80
2022/03/20 08:33:33;;;;;;;29.42;21.77;;;;;;;;;;4917443;29;20324;-77
2022/03/20 08:36:00;;;;;;;26.00;19.77;;;;;;;;;;4918881;29;20191;-77
2022/03/20 08:38:26;;;;;;;32.08;20.00;;;;;;;;;;4918956;29;20187;-79
2022/03/20 08:40:52;;;;;;;30.80;21.50;;;;;;;;;;4918268;29;20198;-78
2022/03/20 08:43:18;;;;;;;29.90;19.83;;;;;;;;;;4918826;29;20650;-76
2022/03/20 08:45:44;;;;;;;29.20;19.93;;;;;;;;;;4918812;29;20416;-77
2022/03/20 08:48:10;;;;;;;25.38;18.95;;;;;;;;;;4918619;29;20407;-79
2022/03/20 08:50:37;;;;;;;31.02;20.50;;;;;;;;;;4918243;29;20208;-77
2022/03/20 08:53:03;;;;;;;32.92;21.52;;;;;;;;;;4918422;29;20212;-77
2022/03/20 08:55:33;;;;;;;27.25;19.70;;;;;;;;;;4932985;29;20187;-76
2022/03/20 08:57:59;;;;;;;26.58;19.02;;;;;;;;;;4918497;29;20174;-77
2022/03/20 09:00:25;;;;;;;28.67;18.70;;;;;;;;;;4918262;29;20262;-77
2022/03/20 09:02:52;;;;;;;29.70;18.95;;;;;;;;;;4918286;29;20179;-76
2022/03/20 09:05:19;;;;;;;33.88;20.63;;;;;;;;;;4918327;29;20179;-75
2022/03/20 09:07:46;;;;;;;26.27;19.55;;;;;;;;;;4918403;29;20232;-77
2022/03/20 09:10:13;;;;;;;30.23;19.65;;;;;;;;;;4918142;29;20268;-77
2022/03/20 09:12:39;;;;;;;27.05;15.38;;;;;;;;;;4918302;29;20574;-76
2022/03/20 09:15:06;;;;;;;30.92;21.40;;;;;;;;;;4932765;29;20602;-76
2022/03/20 09:20:17;;;;;;;23.73;18.85;;;;;;;;;;4918177;29;20210;-76
2022/03/20 09:22:43;;;;;;;27.08;18.75;;;;;;;;;;4918171;29;20175;-77
2022/03/20 09:25:10;;;;;;;27.23;19.85;;;;;;;;;;4918172;29;20190;-77
2022/03/20 09:27:36;;;;;;;28.33;20.30;;;;;;;;;;4918105;29;20214;-76
2022/03/20 09:30:03;;;;;;;25.75;19.27;;;;;;;;;;4918083;29;20190;-77
2022/03/20 09:32:29;;;;;;;23.60;16.67;;;;;;;;;;4917562;29;20214;-75
2022/03/20 09:34:55;;;;;;;26.85;19.10;;;;;;;;;;4917946;29;20194;-76
2022/03/20 09:37:21;;;;;;;24.90;18.50;;;;;;;;;;4932532;29;20179;-77
2022/03/20 09:39:48;;;;;;;26.97;20.50;;;;;;;;;;4932483;29;20922;-75
2022/03/20 09:42:14;;;;;;;29.33;21.05;;;;;;;;;;4917354;29;20443;-76
2022/03/20 09:44:41;;;;;;;27.02;19.27;;;;;;;;;;4917545;29;20241;-76
2022/03/20 09:47:11;;;;;;;27.75;19.70;;;;;;;;;;4917645;29;20221;-76
2022/03/20 09:49:38;;;;;;;29.08;20.50;;;;;;;;;;4917611;29;20179;-79
2022/03/20 09:52:06;;;;;;;28.57;19.83;;;;;;;;;;4917233;29;20680;-76
2022/03/20 09:54:32;;;;;;;29.27;20.17;;;;;;;;;;4917532;29;20440;-79
2022/03/20 09:56:59;;;;;;;29.13;21.13;;;;;;;;;;4917574;29;20457;-77
2022/03/20 09:59:25;;;;;;;28.73;19.57;;;;;;;;;;4931671;29;20430;-77
2022/03/20 10:01:51;;;;;;;27.10;19.20;;;;;;;;;;4917105;29;20422;-75
2022/03/20 10:04:18;;;;;;;24.00;20.13;;;;;;;;;;4931972;29;20430;-76
2022/03/20 10:06:44;;;;;;;24.57;18.77;;;;;;;;;;4931942;29;20413;-77
2022/03/20 10:09:11;;;;;;;24.10;19.13;;;;;;;;;;4931904;29;20419;-75
2022/03/20 10:11:47;;;;;;;27.03;21.07;;;;;;;;;;4916864;29;20438;-75
2022/03/20 10:14:17;;;;;;;26.90;20.10;;;;;;;;;;4917295;29;20558;-77
2022/03/20 10:16:50;;;;;;;30.87;20.90;;;;;;;;;;4917299;29;20395;-79
2022/03/20 10:19:22;;;;;;;28.43;19.97;;;;;;;;;;4917505;29;20381;-76
2022/03/20 10:21:51;;;;;;;28.50;20.33;;;;;;;;;;4916631;29;20438;-76
2022/03/20 10:24:18;;;;;;;27.30;21.07;;;;;;;;;;4917205;29;20397;-74
2022/03/20 10:26:44;;;;;;;25.97;20.27;;;;;;;;;;4917431;29;20405;-76
2022/03/20 10:29:15;;;;;;;25.13;19.90;;;;;;;;;;4917254;29;20891;-77
2022/03/20 10:31:49;;;;;;;28.00;20.73;;;;;;;;;;4931054;29;20549;-75
2022/03/20 10:34:15;;;;;;;24.87;20.50;;;;;;;;;;4917119;29;20453;-79
2022/03/20 10:36:43;;;;;;;27.93;20.30;;;;;;;;;;4916592;29;20415;-77
2022/03/20 10:39:11;;;;;;;25.20;20.30;;;;;;;;;;4917059;29;20419;-79
2022/03/20 10:41:38;;;;;;;27.63;21.50;;;;;;;;;;4916633;29;20442;-76
2022/03/20 10:44:13;;;;;;;30.20;20.97;;;;;;;;;;4931731;29;21312;-77
2022/03/20 10:46:39;;;;;;;26.70;20.80;;;;;;;;;;4916975;29;20393;-77
2022/03/20 10:49:05;;;;;;;24.83;21.10;;;;;;;;;;4916912;29;20498;-75
2022/03/20 10:51:39;;;;;;;27.37;20.97;;;;;;;;;;4916136;29;20409;-74
2022/03/20 10:54:05;;;;;;;26.20;21.13;;;;;;;;;;4916666;29;20419;-77
2022/03/20 10:56:31;;;;;;;24.53;21.27;;;;;;;;;;4916853;29;20444;-76
2022/03/20 10:58:58;;;;;;;26.57;21.17;;;;;;;;;;4916836;29;20396;-76
2022/03/20 11:01:35;;;;;;;26.13;19.93;;;;;;;;;;4915799;29;20445;-75
2022/03/20 11:04:02;;;;;;;23.60;20.10;;;;;;;;;;4903499;29;20401;-76
2022/03/20 11:06:28;;;;;;;28.23;19.10;;;;;;;;;;4898279;29;20412;-78
2022/03/20 11:08:54;;;;;;;27.30;21.70;;;;;;;;;;4917062;29;20840;-75
2022/03/20 11:11:20;;;;;;;25.40;20.70;;;;;;;;;;4916484;29;20545;-76
2022/03/20 11:13:48;;;;;;;23.93;19.47;;;;;;;;;;4916642;29;20433;-74
2022/03/20 11:16:15;;;;;;;26.30;19.87;;;;;;;;;;4916770;29;20460;-76
2022/03/20 11:18:42;;;;;;;24.03;19.30;;;;;;;;;;4915769;29;20811;-77
2022/03/20 11:21:10;;;;;;;31.33;21.40;;;;;;;;;;4896134;29;20440;-74
2022/03/20 11:23:37;;;;;;;25.33;19.50;;;;;;;;;;4897611;29;20790;-75
2022/03/20 11:26:03;;;;;;;31.77;22.27;;;;;;;;;;4897116;29;20860;-75
2022/03/20 11:28:35;;;;;;;25.77;21.70;;;;;;;;;;4897783;29;20800;-75
2022/03/20 11:31:02;;;;;;;26.70;21.90;;;;;;;;;;4897273;29;20431;-76
2022/03/20 11:33:28;;;;;;;28.00;20.63;;;;;;;;;;4897611;29;20797;-76
2022/03/20 11:35:54;;;;;;;29.17;22.93;;;;;;;;;;4897848;29;20449;-78
2022/03/20 11:38:22;;;;;;;27.57;20.80;;;;;;;;;;4896600;29;20446;-78
2022/03/20 11:41:07;;;;;;;25.90;21.30;;;;;;;;;;4897566;29;20467;-78
2022/03/20 11:43:33;;;;;;;27.50;21.40;;;;;;;;;;4897687;29;20419;-76
2022/03/20 11:46:30;;;;;;;27.73;21.83;;;;;;;;;;4897629;29;20382;-75
2022/03/20 11:49:14;;;;;;;27.60;20.70;;;;;;;;;;4900076;29;20406;-75
2022/03/20 11:52:01;;;;;;;27.90;20.80;;;;;;;;;;4899195;29;20999;-76
2022/03/20 11:54:31;;;;;;;27.53;20.90;;;;;;;;;;4900720;29;20415;-78
2022/03/20 11:56:58;;;;;;;27.80;20.53;;;;;;;;;;4900867;29;20422;-76
2022/03/20 11:59:43;;;;;;;29.10;21.87;;;;;;;;;;4900686;29;20430;-76
2022/03/20 12:02:09;;;;;;;29.20;22.70;;;;;;;;;;4900157;29;20445;-76
2022/03/20 12:04:41;;;;;;;27.37;21.63;;;;;;;;;;4900636;29;20462;-79
2022/03/20 12:07:11;;;;;;;29.10;22.27;;;;;;;;;;4900505;29;20416;-77
2022/03/20 12:09:42;;;;;;;30.93;22.10;;;;;;;;;;4900636;29;20423;-76
2022/03/20 12:12:08;;;;;;;31.10;23.00;;;;;;;;;;4900029;29;20534;-77
2022/03/20 12:14:34;;;;;;;31.10;22.20;;;;;;;;;;4900468;29;20416;-76
2022/03/20 12:17:01;;;;;;;25.87;19.77;;;;;;;;;;4900498;29;20408;-78
2022/03/20 12:19:48;;;;;;;28.43;21.37;;;;;;;;;;4900414;29;20417;-76
2022/03/20 12:22:20;;;;;;;27.90;20.85;;;;;;;;;;4900012;29;20437;-76
2022/03/20 12:24:52;;;;;;;31.38;23.25;;;;;;;;;;4899254;29;20662;-77
2022/03/20 12:27:24;;;;;;;35.80;22.92;;;;;;;;;;4900305;29;20183;-74
2022/03/20 12:29:50;;;;;;;28.85;22.10;;;;;;;;;;4900406;29;20266;-75
2022/03/20 12:32:16;;;;;;;30.73;24.07;;;;;;;;;;4899734;29;20288;-75
2022/03/20 12:34:43;;;;;;;33.45;23.38;;;;;;;;;;4900098;29;20515;-75
2022/03/20 12:37:32;;;;;;;34.47;24.73;;;;;;;;;;4900069;29;20193;-76
2022/03/20 12:40:11;;;;;;;30.70;24.55;;;;;;;;;;4899976;29;20207;-75
2022/03/20 12:42:38;;;;;;;36.47;24.77;;;;;;;;;;4899662;29;20215;-76
2022/03/20 12:45:06;;;;;;;37.13;26.70;;;;;;;;;;4899911;29;20179;-76
2022/03/20 12:47:32;;;;;;;34.47;26.80;;;;;;;;;;4899800;29;20257;-76
2022/03/20 12:50:11;;;;;;;36.50;24.83;;;;;;;;;;4899826;29;20696;-75
2022/03/20 12:52:38;;;;;;;39.95;26.55;;;;;;;;;;4899700;29;20219;-76
2022/03/20 12:55:07;;;;;;;37.20;25.30;;;;;;;;;;4899612;29;20183;-75
2022/03/20 12:57:43;;;;;;;33.28;23.00;;;;;;;;;;4899473;29;20179;-75
2022/03/20 13:00:14;;;;;;;33.17;23.67;;;;;;;;;;4899416;29;20497;-77
2022/03/20 13:03:12;;;;;;;33.15;21.90;;;;;;;;;;4898169;29;20209;-74
2022/03/20 13:05:39;;;;;;;34.47;24.65;;;;;;;;;;4898022;29;20191;-75
2022/03/20 13:08:06;;;;;;;30.30;23.58;;;;;;;;;;4899661;29;20586;-75
2022/03/20 13:10:37;;;;;;;32.28;22.92;;;;;;;;;;4899019;29;20172;-75
2022/03/20 13:13:03;;;;;;;32.42;24.33;;;;;;;;;;4899261;29;20204;-76
2022/03/20 13:15:30;;;;;;;34.88;24.05;;;;;;;;;;4898297;29;20175;-77
2022/03/20 13:17:57;;;;;;;33.88;23.65;;;;;;;;;;4899766;29;20182;-75
2022/03/20 13:20:25;;;;;;;32.67;24.55;;;;;;;;;;4898053;29;20184;-75
2022/03/20 13:22:52;;;;;;;34.03;24.63;;;;;;;;;;4899107;29;20176;-75
2022/03/20 13:25:19;;;;;;;25.48;18.80;;;;;;;;;;4898317;29;20190;-77
2022/03/20 13:27:47;;;;;;;34.33;24.70;;;;;;;;;;4899258;29;20181;-76
2022/03/20 13:30:14;;;;;;;37.13;26.40;;;;;;;;;;4899116;29;20625;-76
2022/03/20 13:32:41;;;;;;;33.40;25.40;;;;;;;;;;4898605;29;20586;-75
2022/03/20 13:35:07;;;;;;;33.40;24.15;;;;;;;;;;4899621;29;20189;-74
2022/03/20 13:37:33;;;;;;;31.13;24.98;;;;;;;;;;4900140;29;20191;-76
2022/03/20 13:40:00;;;;;;;34.30;26.83;;;;;;;;;;4901566;29;20186;-75
2022/03/20 13:42:30;;;;;;;36.65;26.50;;;;;;;;;;4897956;29;20219;-76
2022/03/20 13:44:57;;;;;;;40.33;26.17;;;;;;;;;;4897861;29;20191;-76
2022/03/20 13:47:24;;;;;;;36.80;25.88;;;;;;;;;;4899013;29;20518;-75
2022/03/20 13:49:53;;;;;;;38.42;26.13;;;;;;;;;;4897917;29;20277;-75
2022/03/20 13:52:28;;;;;;;36.90;27.27;;;;;;;;;;4898604;29;20216;-76
2022/03/20 13:55:00;;;;;;;35.90;23.65;;;;;;;;;;4898909;29;20605;-77
2022/03/20 13:57:28;;;;;;;30.30;23.25;;;;;;;;;;4898655;29;20168;-75
2022/03/20 13:59:55;;;;;;;33.25;25.35;;;;;;;;;;4897392;29;20558;-79
2022/03/20 14:02:22;;;;;;;35.13;25.30;;;;;;;;;;4898194;29;20626;-77
2022/03/20 14:04:50;;;;;;;33.90;25.90;;;;;;;;;;4898419;29;20701;-77
2022/03/20 14:07:19;;;;;;;32.63;24.20;;;;;;;;;;4896912;29;20570;-77
2022/03/20 14:09:45;;;;;;;34.90;23.13;;;;;;;;;;4897709;29;20429;-76
2022/03/20 14:12:28;;;;;;;23.67;19.07;;;;;;;;;;4896724;29;20977;-77
2022/03/20 14:14:55;;;;;;;24.50;19.70;;;;;;;;;;4898312;29;20493;-75
2022/03/20 14:17:38;;;;;;;28.93;19.67;;;;;;;;;;4897086;29;20970;-77
2022/03/20 14:20:07;;;;;;;31.37;21.90;;;;;;;;;;4898088;29;20414;-79
2022/03/20 14:22:42;;;;;;;28.97;20.00;;;;;;;;;;4897916;29;20441;-78
2022/03/20 14:25:08;;;;;;;23.83;15.40;;;;;;;;;;4898207;29;20802;-77
2022/03/20 14:27:36;;;;;;;26.73;17.60;;;;;;;;;;4898103;29;20417;-78
2022/03/20 14:41:28;;;;;;;28.47;20.33;;;;;;;;;;4897908;29;20443;-78
2022/03/20 14:44:04;;;;;;;22.03;17.90;;;;;;;;;;4897916;29;20791;-79
2022/03/20 14:46:30;;;;;;;25.67;17.95;;;;;;;;;;4907233;29;20418;-78
2022/03/20 14:48:57;;;;;;;21.13;15.93;;;;;;;;;;4901389;29;20328;-77
2022/03/20 14:51:23;;;;;;;23.00;17.17;;;;;;;;;;4897568;29;20450;-78
2022/03/20 14:53:49;;;;;;;20.70;15.30;;;;;;;;;;4901023;29;20503;-76
2022/03/20 14:56:16;;;;;;;22.73;15.63;;;;;;;;;;4906017;29;20437;-76
2022/03/20 14:58:43;;;;;;;21.73;13.73;;;;;;;;;;4900164;29;20439;-76
2022/03/20 15:01:09;;;;;;;19.60;13.70;;;;;;;;;;4901782;29;20850;-76
2022/03/20 15:03:35;;;;;;;22.43;14.87;;;;;;;;;;4897710;29;20434;-76